Davenport, FL

9:27 PM EST on February 23, 2017 (GMT -0500)
Vista Grande Del Webb Orlando Davenport | | Change Station

Elev 124 ft 28.19 °N, 81.63 °W | Updated 33 seconds ago

Overcast
Overcast
68.2 °F
Feels Like 68.2 °F
N
2.2
Wind Variable Wind from NNW

Today
High -- | Low -- °F
--% Chance of Precip.
Yesterday
High -- | Low -- °F
Precip. -- in
Pressure 29.72 in
Visibility 10.0 miles
Clouds Mostly Cloudy 1900 ft
Overcast 2600 ft
Dew Point 63 °F
Humidity 83%
Rainfall 0.15 in
Snow Depth Not available.
6:56 AM 6:23 PM
Waning Crescent, 7% visible
METAR KGIF 240153Z AUTO 02010KT 10SM BKN019 OVC026 20/17 A2972 RMK AO2 RAB31E41 SLP062 P0000 T02000172
Pressure 29.72 in
Visibility 10.0 miles
Clouds Mostly Cloudy 1900 ft
Overcast 2600 ft
Dew Point 63 °F
Humidity 83%
Rainfall 0.15 in
Snow Depth Not available.
6:56 AM 6:23 PM
Waning Crescent, 7% visible
METAR KGIF 240153Z AUTO 02010KT 10SM BKN019 OVC026 20/17 A2972 RMK AO2 RAB31E41 SLP062 P0000 T02000172

Get Your Daily Forecast Email!

Thanks for signing up!

Be on the lookout for a verification email in your inbox.

You'll start receiving the daily forecast at 8 AM.

×

10-Day Weather Forecast

Almanac

Astronomy

Feb. 23, 2017 Rise Set
Actual Time
Civil Twilight
Nautical Twilight
Astronomical Twilight
Moon
Length of Visible Light
Length of Day
Tomorrow will be .
, % of the Moon is Illuminated

Today's Extremes

State Highs State Lows

Community

WunderPhotos

Upload Photos

1,962,540 photos uploaded!

WunderBlog® & News

Nearby

Air Quality

  Air Quality AQ Index Pollutant
Not available.

Snow Depth

Station Depth Elevation

Earthquake Activity

City Distance Mag. Time & Date
Minimum magnitude displayed is 2.5.

Coastal Water Temperatures

Place Temperature

Stations

Nearby Weather Stations

Station Location Temp. Windchill Dew Point Humidity Wind Precip. Elev Updated Type
                   

Watches & Warnings

There are currently no watches in effect.